Mississippi Star — 9HA2441 — position and weather

sailwx.info

Track history (hours):
 
Tides and Currents Weather Stations Pressure Air Temp Water Temp Dewpoint Dewpoint Depression Visibility Wind Speed Wind Dir Waves Ship Positions

Mississippi Star

Last reported at 2016-Jul-24 21:29 UTC. Time now 2016-Jul-24 22:25 UTC.
Position N 52°26' E 003°56'.

Length 128 m; draft 7.1 m.

Type: Tanker. MMSI: 248621000.

Date/timePositionNaut miles runAvg speedWind from/ knotsBaromVisibWave heightAir tempDewpointWater temp
2016-Jul-24 21:29N 52°26' E 003°56'0 0.0
2016-Jul-24 20:29N 52°26' E 003°56'0 0.0
2016-Jul-24 19:32N 52°26' E 003°56'0 0.0
2016-Jul-24 18:29N 52°26' E 003°56'0 0.0
2016-Jul-24 17:26N 52°26' E 003°56'0 0.0
2016-Jul-24 16:32N 52°26' E 003°56'0 0.0
2016-Jul-24 15:32N 52°26' E 003°56'0 0.1
2016-Jul-24 14:32N 52°25' E 003°56'0 0.0
2016-Jul-24 13:32N 52°25' E 003°56'0 0.0
2016-Jul-24 12:32N 52°25' E 003°56'0 0.0
2016-Jul-24 11:32N 52°25' E 003°56'0 0.0
2016-Jul-24 10:32N 52°25' E 003°56'0 0.1
2016-Jul-24 09:32N 52°25' E 003°56'0 0.1
2016-Jul-24 08:29N 52°26' E 003°56'0 0.0
2016-Jul-24 07:20N 52°26' E 003°56'0 0.0
2016-Jul-24 06:32N 52°26' E 003°56'0 0.0
2016-Jul-24 05:32N 52°26' E 003°56'0 0.0
2016-Jul-24 04:32N 52°26' E 003°56'0 0.0
2016-Jul-24 03:32N 52°26' E 003°56'0 0.1
2016-Jul-24 02:29N 52°25' E 003°56'0 0.0
2016-Jul-24 01:32N 52°25' E 003°56'0 0.0
2016-Jul-24 00:32N 52°25' E 003°56'7 7.1
2016-Jul-23 23:33N 52°26' E 003°44'1212.0
2016-Jul-23 22:33N 52°28' E 003°25'1312.6
2016-Jul-23 21:33N 52°31' E 003°05'1212.3
2016-Jul-23 20:33N 52°36' E 002°47'1312.5
2016-Jul-23 19:30N 52°40' E 002°26'1110.8
2016-Jul-23 18:31N 52°46' E 002°11'1010.4
2016-Jul-23 17:34N 52°53' E 001°60'10 9.9
2016-Jul-23 16:33N 52°59' E 001°46'10 9.8
2016-Jul-23 15:33N 53°05' E 001°34'10 9.9
2016-Jul-23 14:33N 53°12' E 001°22'1010.1
2016-Jul-23 13:34N 53°20' E 001°11'1010.1
2016-Jul-23 12:34N 53°28' E 001°00'1211.6
2016-Jul-23 11:33N 53°30' E 000°42'1212.0
2016-Jul-23 10:33N 53°32' E 000°22'1110.5
2016-Jul-23 09:33N 53°34' E 000°04'1110.9
2016-Jul-23 08:33N 53°39' W 000°12'  
2016-Jul-21 01:34N 53°39' W 000°13'2 1.8
2016-Jul-21 00:33N 53°38' W 000°10'9 9.2
2016-Jul-20 23:34N 53°35' E 000°05'9 8.8
2016-Jul-20 22:33N 53°33' E 000°19'5 4.5
2016-Jul-20 21:31N 53°36' E 000°26'0 0.0
2016-Jul-20 20:28N 53°36' E 000°26'0 0.1
2016-Jul-20 19:13N 53°36' E 000°26'0 0.0
2016-Jul-20 17:31N 53°36' E 000°26'0 0.0
2016-Jul-20 16:31N 53°36' E 000°26'0 0.0
2016-Jul-20 15:31N 53°36' E 000°26'0 0.1
2016-Jul-20 14:31N 53°36' E 000°26'0 0.2
2016-Jul-20 13:31N 53°36' E 000°26'0 0.0
2016-Jul-20 12:31N 53°36' E 000°26'0 0.0
2016-Jul-20 11:16N 53°36' E 000°26'0 0.0
2016-Jul-20 10:31N 53°36' E 000°26'0 0.0
2016-Jul-20 09:34N 53°36' E 000°26'0 0.0
2016-Jul-20 08:31N 53°36' E 000°26'9 9.0
2016-Jul-20 07:34N 53°33' E 000°40'1211.7
2016-Jul-20 06:34N 53°29' E 000°58'1110.6
2016-Jul-20 05:33N 53°21' E 001°09'1111.2
2016-Jul-20 04:33N 53°12' E 001°21'1312.7
2016-Jul-20 03:33N 53°04' E 001°37'1413.9
2016-Jul-20 02:33N 52°56' E 001°55'1414.0
2016-Jul-20 01:33N 52°46' E 002°12'1813.0
2016-Jul-20 00:10N 52°38' E 002°38'4612.6
2016-Jul-19 20:29N 52°31' E 003°54'1212.4
2016-Jul-19 19:33N 52°31' E 004°13'1211.7
2016-Jul-19 18:33N 52°28' E 004°32'4 3.5
2016-Jul-19 17:34N 52°28' E 004°38'7 6.7
2016-Jul-19 16:33N 52°24' E 004°47'0 0.0
2016-Jul-18 18:33N 52°24' E 004°47'4 3.7
2016-Jul-18 17:33N 52°26' E 004°42'4 3.8
2016-Jul-18 16:33N 52°28' E 004°36'4 4.4
2016-Jul-18 15:33N 52°28' E 004°29'5 5.2
2016-Jul-18 14:34N 52°28' E 004°21'1110.7
2016-Jul-18 13:33N 52°28' E 004°03'3 2.5
2016-Jul-18 12:32N 52°26' E 003°60'0 0.1
2016-Jul-18 11:32N 52°26' E 003°60'0 0.0
2016-Jul-18 10:32N 52°26' E 003°60'0 0.0
2016-Jul-18 09:32N 52°26' E 003°60'0 0.0
2016-Jul-18 08:32N 52°26' E 003°60'0 0.0
2016-Jul-18 07:32N 52°26' E 003°60'0 0.0
2016-Jul-18 06:32N 52°26' E 003°60'5 4.7
2016-Jul-18 05:33N 52°26' E 003°52'1211.9
2016-Jul-18 04:33N 52°23' E 003°34'1212.4
2016-Jul-18 03:33N 52°15' E 003°18'1313.3
2016-Jul-18 02:33N 52°05' E 003°03'3013.8
2016-Jul-18 00:23N 51°43' E 002°31'1714.3
2016-Jul-17 23:14N 51°30' E 002°15'913.7
2016-Jul-17 22:33N 51°22' E 002°07'1312.9
2016-Jul-17 21:34N 51°11' E 001°56'1413.8
2016-Jul-17 20:33N 51°02' E 001°39'1312.8
2016-Jul-17 19:33N 50°53' E 001°26'4611.3
2016-Jul-17 15:31N 50°24' E 000°31'1111.6
2016-Jul-17 14:33N 50°21' E 000°14'1111.4
2016-Jul-17 13:33N 50°18' W 000°03'1111.2
2016-Jul-17 12:33N 50°15' W 000°20'10112.6
2016-Jul-17 04:33N 49°50' W 002°52'1313.4
2016-Jul-17 03:33N 49°49' W 003°13'1313.2
2016-Jul-17 02:33N 49°49' W 003°33'1312.9
2016-Jul-17 01:33N 49°48' W 003°53'1212.4
2016-Jul-17 00:33N 49°48' W 004°12'1212.1
2016-Jul-16 23:33N 49°48' W 004°31'1212.1
2016-Jul-16 22:33N 49°47' W 004°50'1212.0
2016-Jul-16 21:33N 49°48' W 005°08'1211.9
2016-Jul-16 20:33N 49°49' W 005°27'1212.0
2016-Jul-16 19:34N 49°50' W 005°45'1110.6
2016-Jul-16 18:33N 49°54' W 006°01'1413.6
2016-Jul-16 17:33N 50°07' W 006°01'1313.2
2016-Jul-16 16:33N 50°21' W 006°01'1212.3
2016-Jul-16 15:33N 50°30' W 005°48'1211.8
2016-Jul-16 14:33N 50°39' W 005°37'1211.5
2016-Jul-16 13:33N 50°48' W 005°25'1111.1
2016-Jul-16 12:33N 50°57' W 005°14'1010.2
2016-Jul-16 11:33N 51°04' W 005°03'1211.7
2016-Jul-16 10:33N 51°13' W 004°51'1211.1
2016-Jul-16 09:29N 51°18' W 004°33'2513.1
2016-Jul-16 07:32N 51°20' W 003°53'28 9.4
2016-Jul-16 04:33N 51°27' W 003°09'0 0.0
2016-Jul-15 04:20N 51°27' W 003°09'0 0.1
2016-Jul-15 03:33N 51°27' W 003°09'1 1.5
2016-Jul-15 02:33N 51°26' W 003°09'9 9.0
2016-Jul-15 01:33N 51°21' W 003°21'18 7.5
2016-Jul-14 23:10N 51°20' W 003°50'1113.5
2016-Jul-14 22:22N 51°19' W 004°07'1012.6
2016-Jul-14 21:33N 51°18' W 004°23'  
Track history (hours):
 
Tides and Currents Weather Stations Pressure Air Temp Water Temp Dewpoint Dewpoint Depression Visibility Wind Speed Wind Dir Waves Ship Positions

Mississippi Star

Last reported at 2016-Jul-24 21:29 UTC. Time now 2016-Jul-24 22:25 UTC.
Position N 52°26' E 003°56'.

Length 128 m; draft 7.1 m.

Type: Tanker. MMSI: 248621000.

Date/timePositionNaut miles runAvg speedWind from/ knotsBaromVisibWave heightAir tempDewpointWater temp
2016-Jul-24 21:29N 52°26' E 003°56'0 0.0
2016-Jul-24 20:29N 52°26' E 003°56'0 0.0
2016-Jul-24 19:32N 52°26' E 003°56'0 0.0
2016-Jul-24 18:29N 52°26' E 003°56'0 0.0
2016-Jul-24 17:26N 52°26' E 003°56'0 0.0
2016-Jul-24 16:32N 52°26' E 003°56'0 0.0
2016-Jul-24 15:32N 52°26' E 003°56'0 0.1
2016-Jul-24 14:32N 52°25' E 003°56'0 0.0
2016-Jul-24 13:32N 52°25' E 003°56'0 0.0
2016-Jul-24 12:32N 52°25' E 003°56'0 0.0
2016-Jul-24 11:32N 52°25' E 003°56'0 0.0
2016-Jul-24 10:32N 52°25' E 003°56'0 0.1
2016-Jul-24 09:32N 52°25' E 003°56'0 0.1
2016-Jul-24 08:29N 52°26' E 003°56'0 0.0
2016-Jul-24 07:20N 52°26' E 003°56'0 0.0
2016-Jul-24 06:32N 52°26' E 003°56'0 0.0
2016-Jul-24 05:32N 52°26' E 003°56'0 0.0
2016-Jul-24 04:32N 52°26' E 003°56'0 0.0
2016-Jul-24 03:32N 52°26' E 003°56'0 0.1
2016-Jul-24 02:29N 52°25' E 003°56'0 0.0
2016-Jul-24 01:32N 52°25' E 003°56'0 0.0
2016-Jul-24 00:32N 52°25' E 003°56'7 7.1
2016-Jul-23 23:33N 52°26' E 003°44'1212.0
2016-Jul-23 22:33N 52°28' E 003°25'1312.6
2016-Jul-23 21:33N 52°31' E 003°05'1212.3
2016-Jul-23 20:33N 52°36' E 002°47'1312.5
2016-Jul-23 19:30N 52°40' E 002°26'1110.8
2016-Jul-23 18:31N 52°46' E 002°11'1010.4
2016-Jul-23 17:34N 52°53' E 001°60'10 9.9
2016-Jul-23 16:33N 52°59' E 001°46'10 9.8
2016-Jul-23 15:33N 53°05' E 001°34'10 9.9
2016-Jul-23 14:33N 53°12' E 001°22'1010.1
2016-Jul-23 13:34N 53°20' E 001°11'1010.1
2016-Jul-23 12:34N 53°28' E 001°00'1211.6
2016-Jul-23 11:33N 53°30' E 000°42'1212.0
2016-Jul-23 10:33N 53°32' E 000°22'1110.5
2016-Jul-23 09:33N 53°34' E 000°04'1110.9
2016-Jul-23 08:33N 53°39' W 000°12'  
2016-Jul-21 01:34N 53°39' W 000°13'2 1.8
2016-Jul-21 00:33N 53°38' W 000°10'9 9.2
2016-Jul-20 23:34N 53°35' E 000°05'9 8.8
2016-Jul-20 22:33N 53°33' E 000°19'5 4.5
2016-Jul-20 21:31N 53°36' E 000°26'0 0.0
2016-Jul-20 20:28N 53°36' E 000°26'0 0.1
2016-Jul-20 19:13N 53°36' E 000°26'0 0.0
2016-Jul-20 17:31N 53°36' E 000°26'0 0.0
2016-Jul-20 16:31N 53°36' E 000°26'0 0.0
2016-Jul-20 15:31N 53°36' E 000°26'0 0.1
2016-Jul-20 14:31N 53°36' E 000°26'0 0.2
2016-Jul-20 13:31N 53°36' E 000°26'0 0.0
2016-Jul-20 12:31N 53°36' E 000°26'0 0.0
2016-Jul-20 11:16N 53°36' E 000°26'0 0.0
2016-Jul-20 10:31N 53°36' E 000°26'0 0.0
2016-Jul-20 09:34N 53°36' E 000°26'0 0.0
2016-Jul-20 08:31N 53°36' E 000°26'9 9.0
2016-Jul-20 07:34N 53°33' E 000°40'1211.7
2016-Jul-20 06:34N 53°29' E 000°58'1110.6
2016-Jul-20 05:33N 53°21' E 001°09'1111.2
2016-Jul-20 04:33N 53°12' E 001°21'1312.7
2016-Jul-20 03:33N 53°04' E 001°37'1413.9
2016-Jul-20 02:33N 52°56' E 001°55'1414.0
2016-Jul-20 01:33N 52°46' E 002°12'1813.0
2016-Jul-20 00:10N 52°38' E 002°38'4612.6
2016-Jul-19 20:29N 52°31' E 003°54'1212.4
2016-Jul-19 19:33N 52°31' E 004°13'1211.7
2016-Jul-19 18:33N 52°28' E 004°32'4 3.5
2016-Jul-19 17:34N 52°28' E 004°38'7 6.7
2016-Jul-19 16:33N 52°24' E 004°47'0 0.0
2016-Jul-18 18:33N 52°24' E 004°47'4 3.7
2016-Jul-18 17:33N 52°26' E 004°42'4 3.8
2016-Jul-18 16:33N 52°28' E 004°36'4 4.4
2016-Jul-18 15:33N 52°28' E 004°29'5 5.2
2016-Jul-18 14:34N 52°28' E 004°21'1110.7
2016-Jul-18 13:33N 52°28' E 004°03'3 2.5
2016-Jul-18 12:32N 52°26' E 003°60'0 0.1
2016-Jul-18 11:32N 52°26' E 003°60'0 0.0
2016-Jul-18 10:32N 52°26' E 003°60'0 0.0
2016-Jul-18 09:32N 52°26' E 003°60'0 0.0
2016-Jul-18 08:32N 52°26' E 003°60'0 0.0
2016-Jul-18 07:32N 52°26' E 003°60'0 0.0
2016-Jul-18 06:32N 52°26' E 003°60'5 4.7
2016-Jul-18 05:33N 52°26' E 003°52'1211.9
2016-Jul-18 04:33N 52°23' E 003°34'1212.4
2016-Jul-18 03:33N 52°15' E 003°18'1313.3
2016-Jul-18 02:33N 52°05' E 003°03'3013.8
2016-Jul-18 00:23N 51°43' E 002°31'1714.3
2016-Jul-17 23:14N 51°30' E 002°15'913.7
2016-Jul-17 22:33N 51°22' E 002°07'1312.9
2016-Jul-17 21:34N 51°11' E 001°56'1413.8
2016-Jul-17 20:33N 51°02' E 001°39'1312.8
2016-Jul-17 19:33N 50°53' E 001°26'4611.3
2016-Jul-17 15:31N 50°24' E 000°31'1111.6
2016-Jul-17 14:33N 50°21' E 000°14'1111.4
2016-Jul-17 13:33N 50°18' W 000°03'1111.2
2016-Jul-17 12:33N 50°15' W 000°20'10112.6
2016-Jul-17 04:33N 49°50' W 002°52'1313.4
2016-Jul-17 03:33N 49°49' W 003°13'1313.2
2016-Jul-17 02:33N 49°49' W 003°33'1312.9
2016-Jul-17 01:33N 49°48' W 003°53'1212.4
2016-Jul-17 00:33N 49°48' W 004°12'1212.1
2016-Jul-16 23:33N 49°48' W 004°31'1212.1
2016-Jul-16 22:33N 49°47' W 004°50'1212.0
2016-Jul-16 21:33N 49°48' W 005°08'1211.9
2016-Jul-16 20:33N 49°49' W 005°27'1212.0
2016-Jul-16 19:34N 49°50' W 005°45'1110.6
2016-Jul-16 18:33N 49°54' W 006°01'1413.6
2016-Jul-16 17:33N 50°07' W 006°01'1313.2
2016-Jul-16 16:33N 50°21' W 006°01'1212.3
2016-Jul-16 15:33N 50°30' W 005°48'1211.8
2016-Jul-16 14:33N 50°39' W 005°37'1211.5
2016-Jul-16 13:33N 50°48' W 005°25'1111.1
2016-Jul-16 12:33N 50°57' W 005°14'1010.2
2016-Jul-16 11:33N 51°04' W 005°03'1211.7
2016-Jul-16 10:33N 51°13' W 004°51'1211.1
2016-Jul-16 09:29N 51°18' W 004°33'2513.1
2016-Jul-16 07:32N 51°20' W 003°53'28 9.4
2016-Jul-16 04:33N 51°27' W 003°09'0 0.0
2016-Jul-15 04:20N 51°27' W 003°09'0 0.1
2016-Jul-15 03:33N 51°27' W 003°09'1 1.5
2016-Jul-15 02:33N 51°26' W 003°09'9 9.0
2016-Jul-15 01:33N 51°21' W 003°21'18 7.5
2016-Jul-14 23:10N 51°20' W 003°50'1113.5
2016-Jul-14 22:22N 51°19' W 004°07'1012.6
2016-Jul-14 21:33N 51°18' W 004°23'  

Dump ship's entire track history